createdAt,value
2019-01-16T00:01:00.209Z,14.27
2019-01-16T00:03:36.422Z,16.13
2019-01-16T00:06:23.340Z,12.17
2019-01-16T00:08:53.429Z,12.53
2019-01-16T00:11:29.041Z,12.60
2019-01-16T00:14:05.171Z,11.43
2019-01-16T00:16:35.433Z,9.83
2019-01-16T00:19:05.517Z,10.80
2019-01-16T00:21:35.633Z,11.40
2019-01-16T00:24:06.010Z,13.83
2019-01-16T00:26:44.718Z,8.80
2019-01-16T00:29:23.709Z,9.57
2019-01-16T00:31:53.519Z,12.17
2019-01-16T00:34:23.290Z,10.33
2019-01-16T00:36:53.395Z,11.80
2019-01-16T00:39:40.082Z,13.30
2019-01-16T00:42:22.364Z,11.70
2019-01-16T00:44:52.449Z,12.53
2019-01-16T00:47:37.107Z,16.23
2019-01-16T00:50:25.479Z,15.77
2019-01-16T00:53:10.321Z,15.97
2019-01-16T00:55:58.353Z,16.70
2019-01-16T00:58:28.441Z,14.83
2019-01-16T01:01:04.398Z,14.23
2019-01-16T01:03:52.597Z,38.57
2019-01-16T01:06:22.400Z,28.80
2019-01-16T01:08:55.556Z,16.00
2019-01-16T01:11:28.131Z,15.83
2019-01-16T01:14:06.837Z,15.13
2019-01-16T01:16:42.645Z,16.10
2019-01-16T01:19:18.206Z,14.80
2019-01-16T01:22:00.314Z,13.37
2019-01-16T01:24:47.013Z,18.27
2019-01-16T01:27:16.783Z,14.20
2019-01-16T01:29:52.411Z,16.83
2019-01-16T01:32:40.823Z,15.47
2019-01-16T01:35:28.610Z,13.27
2019-01-16T01:38:14.977Z,15.13
2019-01-16T01:40:54.123Z,13.50
2019-01-16T01:43:35.991Z,16.23
2019-01-16T01:46:17.895Z,14.83
2019-01-16T01:49:05.683Z,16.43
2019-01-16T01:51:47.641Z,17.20
2019-01-16T01:54:17.429Z,15.90
2019-01-16T01:56:47.213Z,20.10
2019-01-16T01:59:33.546Z,15.57
2019-01-16T02:02:15.578Z,14.07
2019-01-16T02:05:03.779Z,13.90
2019-01-16T02:07:36.357Z,17.40
2019-01-16T02:10:24.615Z,13.17
2019-01-16T02:12:57.393Z,11.07
2019-01-16T02:15:33.704Z,11.40
2019-01-16T02:18:03.837Z,12.90
2019-01-16T02:20:48.858Z,11.13
2019-01-16T02:23:34.971Z,13.27
2019-01-16T02:26:07.851Z,13.80
2019-01-16T02:28:46.419Z,10.43
2019-01-16T02:31:22.521Z,16.27
2019-01-16T02:33:52.286Z,9.67
2019-01-16T02:36:24.949Z,10.43
2019-01-16T02:38:55.070Z,13.07
2019-01-16T02:41:25.196Z,11.53
2019-01-16T02:44:07.714Z,12.80
2019-01-16T02:46:40.808Z,12.27
2019-01-16T02:49:16.372Z,10.23
2019-01-16T02:51:58.199Z,8.37
2019-01-16T02:54:37.474Z,11.67
2019-01-16T02:57:10.349Z,10.87
2019-01-16T02:59:46.188Z,10.50
2019-01-16T03:02:34.395Z,9.37
2019-01-16T03:05:04.500Z,8.13
2019-01-16T03:07:34.555Z,11.70
2019-01-16T03:10:15.132Z,10.70
2019-01-16T03:13:00.018Z,8.53
2019-01-16T03:15:35.902Z,9.83
2019-01-16T03:18:06.019Z,12.73
2019-01-16T03:20:36.119Z,12.13
2019-01-16T03:23:12.259Z,13.87
2019-01-16T03:25:45.167Z,11.80
2019-01-16T03:28:26.829Z,8.80
2019-01-16T03:30:56.938Z,12.00
2019-01-16T03:33:32.983Z,9.33
2019-01-16T03:36:03.169Z,11.20
2019-01-16T03:38:35.969Z,8.13
2019-01-16T03:41:15.238Z,9.80
2019-01-16T03:43:51.363Z,11.53
2019-01-16T03:46:27.619Z,8.17
2019-01-16T03:49:03.768Z,9.43
2019-01-16T03:51:36.583Z,8.93
2019-01-16T03:54:06.795Z,12.43
2019-01-16T03:56:36.955Z,8.87
2019-01-16T03:59:16.187Z,9.43
2019-01-16T04:02:02.447Z,10.90
2019-01-16T04:04:35.285Z,8.83
2019-01-16T04:07:05.742Z,8.43
2019-01-16T04:09:38.600Z,8.93
2019-01-16T04:12:17.940Z,9.10
2019-01-16T04:14:57.077Z,10.50
2019-01-16T04:17:27.260Z,10.27
2019-01-16T04:20:00.029Z,10.77
2019-01-16T04:25:21.135Z,9.17
2019-01-16T04:28:07.556Z,15.33
2019-01-16T04:30:37.647Z,9.80
2019-01-16T04:33:07.776Z,8.13
2019-01-16T04:35:38.282Z,11.37
2019-01-16T04:38:13.871Z,10.73
2019-01-16T04:40:44.016Z,8.73
2019-01-16T04:43:17.174Z,10.07
2019-01-16T04:45:47.340Z,10.27
2019-01-16T04:48:17.778Z,8.90
2019-01-16T04:50:48.191Z,10.70
2019-01-16T04:53:23.959Z,10.47
2019-01-16T04:55:56.759Z,8.77
2019-01-16T04:58:32.660Z,9.73
2019-01-16T05:01:19.431Z,13.23
2019-01-16T05:03:49.943Z,10.10
2019-01-16T05:06:36.224Z,9.73
2019-01-16T05:09:19.670Z,9.97
2019-01-16T05:11:56.080Z,10.47
2019-01-16T05:14:26.257Z,12.53
2019-01-16T05:16:56.486Z,9.57
2019-01-16T05:19:39.059Z,11.73
2019-01-16T05:22:09.066Z,8.97
2019-01-16T05:24:55.061Z,12.50
2019-01-16T05:27:39.915Z,9.57
2019-01-16T05:30:17.522Z,8.47
2019-01-16T05:32:53.467Z,9.33
2019-01-16T05:35:23.250Z,11.20
2019-01-16T05:38:05.592Z,11.53
2019-01-16T05:40:50.621Z,11.83
2019-01-16T05:43:26.969Z,10.00
2019-01-16T05:45:59.885Z,11.43
2019-01-16T05:48:30.003Z,10.43
2019-01-16T05:51:02.752Z,8.57
2019-01-16T05:53:44.996Z,11.33
2019-01-16T05:56:31.398Z,11.43
2019-01-16T05:59:04.254Z,12.83
2019-01-16T06:01:34.067Z,10.27
2019-01-16T06:04:20.857Z,10.73
2019-01-16T06:06:53.751Z,10.70
2019-01-16T06:09:23.948Z,10.87
2019-01-16T06:11:53.823Z,9.47
2019-01-16T06:14:26.931Z,11.50
2019-01-16T06:16:57.491Z,11.83
2019-01-16T06:19:30.130Z,12.00
2019-01-16T06:22:16.429Z,10.43
2019-01-16T06:24:46.281Z,8.70
2019-01-16T06:27:22.086Z,9.10
2019-01-16T06:29:57.858Z,9.50
2019-01-16T06:32:30.890Z,8.80
2019-01-16T06:35:13.586Z,12.90
2019-01-16T06:38:01.804Z,9.67
2019-01-16T06:40:46.816Z,12.83
2019-01-16T06:43:19.996Z,9.97
2019-01-16T06:45:59.022Z,11.80
2019-01-16T06:48:29.134Z,9.37
2019-01-16T06:51:05.025Z,10.90
2019-01-16T06:53:49.944Z,9.97
2019-01-16T06:56:25.637Z,9.83
2019-01-16T06:59:07.720Z,10.27
2019-01-16T07:01:40.424Z,11.97
2019-01-16T07:04:16.654Z,13.27
2019-01-16T07:06:55.282Z,12.73
2019-01-16T07:09:25.412Z,11.97
2019-01-16T07:12:04.662Z,11.13
2019-01-16T07:14:37.375Z,12.63
2019-01-16T07:17:07.278Z,12.63
2019-01-16T07:19:42.915Z,13.30
2019-01-16T07:22:21.998Z,10.73
2019-01-16T07:24:55.011Z,11.77
2019-01-16T07:27:25.390Z,10.33
2019-01-16T07:30:12.079Z,12.23
2019-01-16T07:32:51.574Z,11.00
2019-01-16T07:35:27.524Z,10.63
2019-01-16T07:37:57.692Z,15.07
2019-01-16T07:40:30.303Z,13.80
2019-01-16T07:43:03.400Z,11.43
2019-01-16T07:45:51.752Z,12.07
2019-01-16T07:48:39.745Z,11.07
2019-01-16T07:51:15.796Z,12.73
2019-01-16T07:54:01.969Z,9.83
2019-01-16T07:56:38.372Z,12.80
2019-01-16T07:59:08.494Z,10.80
2019-01-16T08:01:50.787Z,10.77
2019-01-16T08:04:36.993Z,9.13
2019-01-16T08:07:07.229Z,8.50
2019-01-16T08:09:40.101Z,12.73
2019-01-16T08:12:19.739Z,8.80
2019-01-16T08:15:07.871Z,9.20
2019-01-16T08:17:54.624Z,14.37
2019-01-16T08:20:25.222Z,10.60
2019-01-16T08:22:55.475Z,16.07
2019-01-16T08:25:37.994Z,12.97
2019-01-16T08:28:17.549Z,12.70
2019-01-16T08:30:48.217Z,11.43
2019-01-16T08:33:24.540Z,10.37
2019-01-16T08:35:54.657Z,10.23
2019-01-16T08:38:43.192Z,11.93
2019-01-16T08:41:31.243Z,11.73
2019-01-16T08:44:01.362Z,7.97
2019-01-16T08:46:49.193Z,11.27
2019-01-16T08:49:35.852Z,7.90
2019-01-16T08:52:15.649Z,9.40
2019-01-16T08:54:48.790Z,8.30
2019-01-16T08:57:29.960Z,10.57
2019-01-16T09:00:00.475Z,10.50
2019-01-16T09:02:36.319Z,9.43
2019-01-16T09:05:09.265Z,13.03
2019-01-16T09:07:57.693Z,10.90
2019-01-16T09:10:33.578Z,9.50
2019-01-16T09:13:13.970Z,9.50
2019-01-16T09:15:47.056Z,11.50
2019-01-16T09:18:17.223Z,11.10
2019-01-16T09:20:56.262Z,10.87
2019-01-16T09:23:29.373Z,9.50
2019-01-16T09:26:16.792Z,10.17
2019-01-16T09:28:46.928Z,12.63
2019-01-16T09:31:25.785Z,11.07
2019-01-16T09:34:08.240Z,9.50
2019-01-16T09:36:41.291Z,10.43
2019-01-16T09:39:11.595Z,12.33
2019-01-16T09:41:41.731Z,10.97
2019-01-16T09:44:28.420Z,11.60
2019-01-16T09:47:14.850Z,9.87
2019-01-16T09:49:54.324Z,9.20
2019-01-16T09:52:27.435Z,11.90
2019-01-16T09:54:57.955Z,9.90
2019-01-16T09:57:28.131Z,12.43
2019-01-16T10:00:07.247Z,10.27
2019-01-16T10:02:37.427Z,10.87
2019-01-16T10:05:18.444Z,11.30
2019-01-16T10:07:48.914Z,12.07
2019-01-16T10:10:36.291Z,13.70
2019-01-16T10:13:06.507Z,11.40
2019-01-16T10:15:39.113Z,9.30
2019-01-16T10:18:25.393Z,10.10
2019-01-16T10:20:56.042Z,13.70
2019-01-16T10:23:29.268Z,12.53
2019-01-16T10:26:05.173Z,12.20
2019-01-16T10:28:41.297Z,14.00
2019-01-16T10:31:28.033Z,14.43
2019-01-16T10:34:07.066Z,12.40
2019-01-16T10:36:55.219Z,13.07
2019-01-16T10:39:37.045Z,14.13
2019-01-16T10:42:12.855Z,13.07
2019-01-16T10:44:55.054Z,15.27
2019-01-16T10:47:33.857Z,20.57
2019-01-16T10:50:04.022Z,14.20
2019-01-16T10:52:34.127Z,14.70
2019-01-16T10:55:04.222Z,14.67
2019-01-16T10:57:34.359Z,13.53
2019-01-16T11:00:16.729Z,15.43
2019-01-16T11:03:03.111Z,15.77
2019-01-16T11:05:51.031Z,15.40
2019-01-16T11:08:20.830Z,14.63
2019-01-16T11:10:50.935Z,14.30
2019-01-16T11:13:29.955Z,13.33
2019-01-16T11:16:12.064Z,13.80
2019-01-16T11:18:48.099Z,12.53
2019-01-16T11:21:34.499Z,14.90
2019-01-16T11:24:04.944Z,14.77
2019-01-16T11:26:50.009Z,14.87
2019-01-16T11:29:23.122Z,14.80
2019-01-16T11:31:59.201Z,15.57
2019-01-16T11:34:29.613Z,14.03
2019-01-16T11:37:15.425Z,17.03
2019-01-16T11:40:04.438Z,13.30
2019-01-16T11:42:29.699Z,11.57
2019-01-16T11:45:08.764Z,11.73
2019-01-16T11:47:50.861Z,11.53
2019-01-16T11:50:23.695Z,11.93
2019-01-16T11:52:53.767Z,12.23
2019-01-16T11:55:32.692Z,13.97
2019-01-16T11:58:14.948Z,11.60
2019-01-16T12:00:48.046Z,13.60
2019-01-16T12:03:21.216Z,11.70
2019-01-16T12:06:03.584Z,12.60
2019-01-16T12:08:50.126Z,12.03
2019-01-16T12:11:23.139Z,10.53
2019-01-16T12:14:02.446Z,8.70
2019-01-16T12:16:48.601Z,8.27
2019-01-16T12:19:31.057Z,9.77
2019-01-16T12:22:04.092Z,12.07
2019-01-16T12:24:50.442Z,11.77
2019-01-16T12:27:32.132Z,10.40
2019-01-16T12:30:11.715Z,11.13
2019-01-16T12:32:41.515Z,12.40
2019-01-16T12:35:27.940Z,10.73
2019-01-16T12:38:00.553Z,12.97
2019-01-16T12:40:39.651Z,12.27
2019-01-16T12:43:27.818Z,10.23
2019-01-16T12:45:57.938Z,12.70
2019-01-16T12:48:30.802Z,10.50
2019-01-16T12:51:00.831Z,12.87
2019-01-16T12:53:33.874Z,12.83
2019-01-16T12:56:22.174Z,13.20
2019-01-16T12:58:52.261Z,9.30
2019-01-16T13:01:28.414Z,9.70
2019-01-16T13:04:13.806Z,12.37
2019-01-16T13:06:59.992Z,10.50
2019-01-16T13:09:29.770Z,9.53
2019-01-16T13:12:11.816Z,8.87
2019-01-16T13:14:53.810Z,8.40
2019-01-16T13:17:23.932Z,10.17
2019-01-16T13:20:03.264Z,10.27
2019-01-16T13:22:39.027Z,7.23
2019-01-16T13:25:24.330Z,10.77
2019-01-16T13:28:00.608Z,15.20
2019-01-16T13:30:36.851Z,8.97
2019-01-16T13:33:09.962Z,10.67
2019-01-16T13:35:39.745Z,8.10
2019-01-16T13:38:24.865Z,9.67
2019-01-16T13:41:10.031Z,11.10
2019-01-16T13:43:48.466Z,9.60
2019-01-16T13:46:24.564Z,12.57
2019-01-16T13:49:06.398Z,11.87
2019-01-16T13:51:39.617Z,11.03
2019-01-16T13:54:26.753Z,12.73
2019-01-16T13:57:12.245Z,10.37
2019-01-16T13:59:42.040Z,9.43
2019-01-16T14:02:23.799Z,9.37
2019-01-16T14:04:56.416Z,16.27
2019-01-16T14:07:32.796Z,10.60
2019-01-16T14:10:12.166Z,11.57
2019-01-16T14:12:45.113Z,7.87
2019-01-16T14:15:32.289Z,8.80
2019-01-16T14:18:02.092Z,10.07
2019-01-16T14:20:34.868Z,11.77
2019-01-16T14:23:17.577Z,10.53
2019-01-16T14:25:50.418Z,10.57
2019-01-16T14:28:36.793Z,12.87
2019-01-16T14:31:09.091Z,15.70
2019-01-16T14:33:54.836Z,21.20
2019-01-16T14:36:30.921Z,22.37
2019-01-16T14:39:15.980Z,21.13
2019-01-16T14:41:46.365Z,22.67
2019-01-16T14:44:31.624Z,25.20
2019-01-16T14:47:10.889Z,24.17
2019-01-16T14:49:41.003Z,26.47
2019-01-16T14:52:11.268Z,26.70
2019-01-16T14:54:41.617Z,30.27
2019-01-16T14:57:20.871Z,24.07
2019-01-16T14:59:59.649Z,15.83
2019-01-16T15:02:32.250Z,16.33
2019-01-16T15:05:18.966Z,16.57
2019-01-16T15:08:01.362Z,15.40
2019-01-16T15:10:46.281Z,16.13
2019-01-16T15:13:22.250Z,14.57
2019-01-16T15:16:01.286Z,14.43
2019-01-16T15:18:49.021Z,14.47
2019-01-16T15:21:22.024Z,16.30
2019-01-16T15:23:57.637Z,15.10
2019-01-16T15:26:30.327Z,19.67
2019-01-16T15:29:00.421Z,16.57
2019-01-16T15:31:30.623Z,15.77
2019-01-16T15:34:15.828Z,16.87
2019-01-16T15:36:45.648Z,18.20
2019-01-16T15:39:15.500Z,19.27
2019-01-16T15:41:57.312Z,19.03
2019-01-16T15:44:30.424Z,18.83
2019-01-16T15:47:06.861Z,19.67
2019-01-16T15:49:48.804Z,18.77
2019-01-16T15:52:18.913Z,16.93
2019-01-16T15:54:55.107Z,18.40
2019-01-16T15:57:28.161Z,18.17
2019-01-16T15:59:57.949Z,21.80
2019-01-16T16:02:33.879Z,19.17
2019-01-16T16:05:19.861Z,17.90
2019-01-16T16:07:52.962Z,18.20
2019-01-16T16:10:23.161Z,18.03
2019-01-16T16:12:53.249Z,20.87
2019-01-16T16:15:23.389Z,15.90
2019-01-16T16:18:08.508Z,21.60
2019-01-16T16:20:40.995Z,17.13
2019-01-16T16:23:22.961Z,17.70
2019-01-16T16:25:56.124Z,18.13
2019-01-16T16:28:26.230Z,17.03
2019-01-16T16:30:59.711Z,16.03
2019-01-16T16:33:38.470Z,16.60
2019-01-16T16:36:08.724Z,17.40
2019-01-16T16:38:50.518Z,19.37
2019-01-16T16:41:20.633Z,15.77
2019-01-16T16:43:59.584Z,19.10
2019-01-16T16:46:32.086Z,19.23
2019-01-16T16:49:18.422Z,18.07
2019-01-16T16:52:04.808Z,19.17
2019-01-16T16:54:34.607Z,20.77
2019-01-16T16:57:19.499Z,15.03
2019-01-16T16:59:57.964Z,19.23
2019-01-16T17:02:27.767Z,18.43
2019-01-16T17:05:06.229Z,17.20
2019-01-16T17:07:36.367Z,20.50
2019-01-16T17:10:14.973Z,20.40
2019-01-16T17:12:44.776Z,17.87
2019-01-16T17:15:15.203Z,22.00
2019-01-16T17:17:48.203Z,21.83
2019-01-16T17:20:20.911Z,28.70
2019-01-16T17:23:03.204Z,38.47
2019-01-16T17:25:33.373Z,33.87
2019-01-16T17:28:06.151Z,33.70
2019-01-16T17:30:36.260Z,29.13
2019-01-16T17:33:06.421Z,26.37
2019-01-16T17:35:39.558Z,24.87
2019-01-16T17:38:24.304Z,22.90
2019-01-16T17:41:06.228Z,21.30
2019-01-16T17:43:36.356Z,18.60
2019-01-16T17:46:09.603Z,18.40
2019-01-16T17:48:56.029Z,16.87
2019-01-16T17:51:42.066Z,17.13
2019-01-16T17:54:28.209Z,14.47
2019-01-16T17:56:57.997Z,15.63
2019-01-16T17:59:39.836Z,13.77
2019-01-16T18:02:15.707Z,16.73
2019-01-16T18:04:48.439Z,13.33
2019-01-16T18:07:34.473Z,15.70
2019-01-16T18:10:04.319Z,14.20
2019-01-16T18:12:37.209Z,12.87
2019-01-16T18:15:26.201Z,14.17
2019-01-16T18:18:14.085Z,11.40
2019-01-16T18:20:56.347Z,14.03
2019-01-16T18:23:43.314Z,13.10
2019-01-16T18:26:31.900Z,13.83
2019-01-16T18:29:01.993Z,10.87
2019-01-16T18:31:44.203Z,13.97
2019-01-16T18:34:14.380Z,12.20
2019-01-16T18:36:53.318Z,11.30
2019-01-16T18:39:23.497Z,12.43
2019-01-16T18:42:02.335Z,11.60
2019-01-16T18:44:35.403Z,11.93
2019-01-16T18:47:14.699Z,10.47
2019-01-16T18:49:59.583Z,12.80
2019-01-16T18:52:38.946Z,11.63
2019-01-16T18:55:26.008Z,12.03
2019-01-16T18:57:56.387Z,16.33
2019-01-16T19:00:44.045Z,15.27
2019-01-16T19:03:16.987Z,12.73
2019-01-16T19:05:47.102Z,10.67
2019-01-16T19:08:33.439Z,12.27
2019-01-16T19:11:05.990Z,11.63
2019-01-16T19:13:45.275Z,10.47
2019-01-16T19:16:18.048Z,11.37
2019-01-16T19:18:48.168Z,9.70
2019-01-16T19:21:18.276Z,10.17
2019-01-16T19:23:51.136Z,10.70
2019-01-16T19:26:24.193Z,10.77
2019-01-16T19:29:06.583Z,10.40
2019-01-16T19:31:51.932Z,12.73
2019-01-16T19:34:33.746Z,9.03
2019-01-16T19:37:20.110Z,9.50
2019-01-16T19:40:01.887Z,9.30
2019-01-16T19:42:43.738Z,8.20
2019-01-16T19:45:16.771Z,9.10
2019-01-16T19:48:02.204Z,8.97
2019-01-16T19:50:31.990Z,9.70
2019-01-16T19:53:04.830Z,8.73
2019-01-16T19:55:45.973Z,9.27
2019-01-16T19:58:21.424Z,7.47
2019-01-16T20:00:53.969Z,8.13
2019-01-16T20:03:42.203Z,10.90
2019-01-16T20:06:24.017Z,8.37
2019-01-16T20:08:56.658Z,7.90
2019-01-16T20:11:27.040Z,9.97
2019-01-16T20:14:00.327Z,15.00
2019-01-16T20:16:33.184Z,13.47
2019-01-16T20:19:05.920Z,14.03
2019-01-16T20:21:38.976Z,12.87
2019-01-16T20:24:09.089Z,15.17
2019-01-16T20:26:44.995Z,15.47
2019-01-16T20:29:23.957Z,15.93
2019-01-16T20:32:10.244Z,13.03
2019-01-16T20:34:43.297Z,15.10
2019-01-16T20:37:29.723Z,11.63
2019-01-16T20:40:11.796Z,9.20
2019-01-16T20:42:47.620Z,8.17
2019-01-16T20:45:26.759Z,7.70
2019-01-16T20:47:56.554Z,9.40
2019-01-16T20:50:32.560Z,9.93
2019-01-16T20:53:02.740Z,8.90
2019-01-16T20:55:45.835Z,7.07
2019-01-16T20:58:25.258Z,7.37
2019-01-16T21:01:01.260Z,7.17
2019-01-16T21:03:31.060Z,8.37
2019-01-16T21:06:09.673Z,7.93
2019-01-16T21:08:57.484Z,12.57
2019-01-16T21:11:39.067Z,10.43
2019-01-16T21:14:24.179Z,12.77
2019-01-16T21:17:03.122Z,12.10
2019-01-16T21:19:45.113Z,9.70
2019-01-16T21:22:26.735Z,18.03
2019-01-16T21:24:59.771Z,12.60
2019-01-16T21:27:44.503Z,10.50
2019-01-16T21:30:31.956Z,10.17
2019-01-16T21:33:10.334Z,11.70
2019-01-16T21:35:51.764Z,9.70
2019-01-16T21:38:33.415Z,11.37
2019-01-16T21:41:19.883Z,9.20
2019-01-16T21:43:49.889Z,12.00
2019-01-16T21:46:34.917Z,20.80
2019-01-16T21:49:05.087Z,14.87
2019-01-16T21:51:37.647Z,13.63
2019-01-16T21:54:16.097Z,12.53
2019-01-16T21:56:46.237Z,10.53
2019-01-16T21:59:21.934Z,12.93
2019-01-16T22:01:51.714Z,12.13
2019-01-16T22:04:33.189Z,9.90
2019-01-16T22:07:09.247Z,8.80
2019-01-16T22:09:48.330Z,7.63
2019-01-16T22:12:34.544Z,7.50
2019-01-16T22:15:04.342Z,8.90
2019-01-16T22:17:50.502Z,8.90
2019-01-16T22:20:20.380Z,7.93
2019-01-16T22:23:05.478Z,7.70
2019-01-16T22:25:47.622Z,7.87
2019-01-16T22:28:20.188Z,8.03
2019-01-16T22:30:59.235Z,8.33
2019-01-16T22:33:31.863Z,7.47
2019-01-16T22:36:02.304Z,7.10
2019-01-16T22:38:35.345Z,7.47
2019-01-16T22:41:21.935Z,6.37
2019-01-16T22:43:51.720Z,7.43
2019-01-16T22:46:24.527Z,6.57
2019-01-16T22:48:57.549Z,6.63
2019-01-16T22:51:33.493Z,9.07
2019-01-16T22:54:18.708Z,6.33
2019-01-16T22:57:05.326Z,5.70
2019-01-16T22:59:38.188Z,6.37
2019-01-16T23:02:24.389Z,5.57
2019-01-16T23:04:54.509Z,6.43
2019-01-16T23:07:33.503Z,4.83
2019-01-16T23:10:09.080Z,7.20
2019-01-16T23:12:44.821Z,6.57
2019-01-16T23:15:24.203Z,7.83
2019-01-16T23:18:10.252Z,7.40
2019-01-16T23:20:57.139Z,5.37
2019-01-16T23:23:36.163Z,5.87
2019-01-16T23:26:21.721Z,5.77
2019-01-16T23:29:06.632Z,6.47
2019-01-16T23:31:42.513Z,7.80
2019-01-16T23:34:15.070Z,5.93
2019-01-16T23:36:57.038Z,6.50
2019-01-16T23:39:27.396Z,5.40
2019-01-16T23:41:57.484Z,5.37
2019-01-16T23:44:43.610Z,6.63
2019-01-16T23:47:22.563Z,5.33
2019-01-16T23:50:11.035Z,7.97
2019-01-16T23:52:46.835Z,5.23
2019-01-16T23:55:16.955Z,6.60
2019-01-16T23:57:50.283Z,7.03
